Donnie Sonier — WDF9285 — position and weather

sailwx.info

Track history (hours):
 
Tides and Currents Weather Stations Pressure Air Temp Water Temp Dewpoint Dewpoint Depression Visibility Wind Speed Wind Dir Waves Ship Positions

Donnie Sonier

Owner: LeBeouf Bros. Towing, LLC, Houma, LA. More information available from US FCC via Universal Licensing System and Coast Guard Vessel Documentation Center.

Last reported at 2015-Jun-09 03:15 UTC. Time now 2015-Jul-06 22:05 UTC.
Position N 29°31' W 094°53'.
Warning: this ship's position is 27 days out of date.

Length 22 m.

Type: Tug. MMSI: 367503580.

Date/timePositionNaut miles runAvg speedWind from/ knotsBaromVisibWave heightAir tempDewpointWater temp
2015-Jun-09 03:15N 29°31' W 094°53'5 6.7
2015-Jun-09 02:33N 29°35' W 094°56'7 6.8
2015-Jun-09 01:33N 29°41' W 094°59'6 6.2
2015-Jun-09 00:32N 29°46' W 095°05'2 0.4
2015-Jun-08 20:32N 29°47' W 095°05'1 0.6
2015-Jun-08 19:23N 29°47' W 095°06'0 0.0
2015-Jun-08 18:33N 29°47' W 095°06'0 0.0
2015-Jun-08 17:30N 29°47' W 095°06'0 0.0
2015-Jun-08 16:33N 29°47' W 095°06'0 0.0
2015-Jun-08 15:31N 29°47' W 095°06'1 1.4
2015-Jun-08 14:32N 29°46' W 095°05'1 0.9
2015-Jun-08 13:32N 29°46' W 095°06'1 1.0
2015-Jun-08 12:27N 29°45' W 095°06'0 0.0
2015-Jun-08 11:33N 29°45' W 095°06'0 0.0
2015-Jun-08 10:33N 29°45' W 095°06'0 0.0
2015-Jun-08 09:32N 29°45' W 095°06'0 0.0
2015-Jun-08 08:30N 29°45' W 095°06'0 0.0
2015-Jun-08 07:31N 29°45' W 095°06'0 0.0
2015-Jun-08 06:32N 29°45' W 095°06'0 0.0
2015-Jun-07 15:20N 29°45' W 095°06'0 0.1
2015-Jun-07 13:08N 29°45' W 095°06'0 0.0
2015-Jun-07 12:30N 29°45' W 095°06'1 1.1
2015-Jun-07 11:31N 29°46' W 095°06'0 0.1
2015-Jun-07 07:03N 29°45' W 095°06'1 0.6
2015-Jun-07 06:07N 29°46' W 095°05'3 4.8
2015-Jun-07 05:30N 29°44' W 095°03'5 4.9
2015-Jun-07 04:33N 29°41' W 094°59'6 5.6
2015-Jun-07 03:33N 29°36' W 094°57'6 5.9
2015-Jun-07 02:33N 29°31' W 094°53'  
Track history (hours):
 
Tides and Currents Weather Stations Pressure Air Temp Water Temp Dewpoint Dewpoint Depression Visibility Wind Speed Wind Dir Waves Ship Positions

Donnie Sonier

Owner: LeBeouf Bros. Towing, LLC, Houma, LA. More information available from US FCC via Universal Licensing System and Coast Guard Vessel Documentation Center.

Last reported at 2015-Jun-09 03:15 UTC. Time now 2015-Jul-06 22:05 UTC.
Position N 29°31' W 094°53'.
Warning: this ship's position is 27 days out of date.

Length 22 m.

Type: Tug. MMSI: 367503580.

Date/timePositionNaut miles runAvg speedWind from/ knotsBaromVisibWave heightAir tempDewpointWater temp
2015-Jun-09 03:15N 29°31' W 094°53'5 6.7
2015-Jun-09 02:33N 29°35' W 094°56'7 6.8
2015-Jun-09 01:33N 29°41' W 094°59'6 6.2
2015-Jun-09 00:32N 29°46' W 095°05'2 0.4
2015-Jun-08 20:32N 29°47' W 095°05'1 0.6
2015-Jun-08 19:23N 29°47' W 095°06'0 0.0
2015-Jun-08 18:33N 29°47' W 095°06'0 0.0
2015-Jun-08 17:30N 29°47' W 095°06'0 0.0
2015-Jun-08 16:33N 29°47' W 095°06'0 0.0
2015-Jun-08 15:31N 29°47' W 095°06'1 1.4
2015-Jun-08 14:32N 29°46' W 095°05'1 0.9
2015-Jun-08 13:32N 29°46' W 095°06'1 1.0
2015-Jun-08 12:27N 29°45' W 095°06'0 0.0
2015-Jun-08 11:33N 29°45' W 095°06'0 0.0
2015-Jun-08 10:33N 29°45' W 095°06'0 0.0
2015-Jun-08 09:32N 29°45' W 095°06'0 0.0
2015-Jun-08 08:30N 29°45' W 095°06'0 0.0
2015-Jun-08 07:31N 29°45' W 095°06'0 0.0
2015-Jun-08 06:32N 29°45' W 095°06'0 0.0
2015-Jun-07 15:20N 29°45' W 095°06'0 0.1
2015-Jun-07 13:08N 29°45' W 095°06'0 0.0
2015-Jun-07 12:30N 29°45' W 095°06'1 1.1
2015-Jun-07 11:31N 29°46' W 095°06'0 0.1
2015-Jun-07 07:03N 29°45' W 095°06'1 0.6
2015-Jun-07 06:07N 29°46' W 095°05'3 4.8
2015-Jun-07 05:30N 29°44' W 095°03'5 4.9
2015-Jun-07 04:33N 29°41' W 094°59'6 5.6
2015-Jun-07 03:33N 29°36' W 094°57'6 5.9
2015-Jun-07 02:33N 29°31' W 094°53'  

Dump ship's entire track history